sensor_id;sensor_type;location;lat;lon;timestamp;pressure;altitude;pressure_sealevel;temperature;humidity
61026;BME280;46911;32.650;-16.902;2022-08-19T00:00:05;101557.38;;;20.03;68.35
61026;BME280;46911;32.650;-16.902;2022-08-19T00:02:11;101560.22;;;20.02;68.75
61026;BME280;46911;32.650;-16.902;2022-08-19T00:04:12;101556.50;;;20.03;68.84
61026;BME280;46911;32.650;-16.902;2022-08-19T00:06:14;101559.09;;;20.04;68.69
61026;BME280;46911;32.650;-16.902;2022-08-19T00:08:15;101549.94;;;20.05;69.10
61026;BME280;46911;32.650;-16.902;2022-08-19T00:10:16;101557.06;;;20.06;68.75
61026;BME280;46911;32.650;-16.902;2022-08-19T00:12:19;101555.06;;;20.09;69.10
61026;BME280;46911;32.650;-16.902;2022-08-19T00:14:23;101550.50;;;20.09;68.65
61026;BME280;46911;32.650;-16.902;2022-08-19T00:16:24;101557.63;;;20.10;68.74
61026;BME280;46911;32.650;-16.902;2022-08-19T00:18:28;101556.50;;;20.13;68.86
61026;BME280;46911;32.650;-16.902;2022-08-19T00:20:29;101561.03;;;20.12;68.84
61026;BME280;46911;32.650;-16.902;2022-08-19T00:22:32;101555.78;;;20.11;69.07
61026;BME280;46911;32.650;-16.902;2022-08-19T00:24:33;101564.19;;;20.07;69.25
61026;BME280;46911;32.650;-16.902;2022-08-19T00:26:35;101558.22;;;20.04;69.17
61026;BME280;46911;32.650;-16.902;2022-08-19T00:28:36;101563.94;;;20.01;69.60
61026;BME280;46911;32.650;-16.902;2022-08-19T00:30:36;101570.47;;;19.98;69.38
61026;BME280;46911;32.650;-16.902;2022-08-19T00:32:42;101567.19;;;19.95;68.68
61026;BME280;46911;32.650;-16.902;2022-08-19T00:34:42;101567.34;;;19.93;67.98
61026;BME280;46911;32.650;-16.902;2022-08-19T00:36:43;101561.38;;;19.89;67.31
61026;BME280;46911;32.650;-16.902;2022-08-19T00:38:46;101559.69;;;19.88;67.40
61026;BME280;46911;32.650;-16.902;2022-08-19T00:40:49;101551.97;;;19.84;67.00
61026;BME280;46911;32.650;-16.902;2022-08-19T00:42:52;101549.41;;;19.82;66.72
61026;BME280;46911;32.650;-16.902;2022-08-19T00:44:56;101554.97;;;19.81;66.30
61026;BME280;46911;32.650;-16.902;2022-08-19T00:46:57;101556.81;;;19.80;65.73
61026;BME280;46911;32.650;-16.902;2022-08-19T00:48:59;101556.25;;;19.77;65.92
61026;BME280;46911;32.650;-16.902;2022-08-19T00:51:00;101551.81;;;19.76;65.27
61026;BME280;46911;32.650;-16.902;2022-08-19T00:53:02;101547.69;;;19.71;65.52
61026;BME280;46911;32.650;-16.902;2022-08-19T00:55:07;101552.25;;;19.71;65.29
61026;BME280;46911;32.650;-16.902;2022-08-19T00:57:14;101556.94;;;19.69;64.75
61026;BME280;46911;32.650;-16.902;2022-08-19T00:59:16;101553.66;;;19.65;64.94
61026;BME280;46911;32.650;-16.902;2022-08-19T01:01:20;101555.94;;;19.60;65.22
61026;BME280;46911;32.650;-16.902;2022-08-19T01:03:22;101558.94;;;19.57;65.16
61026;BME280;46911;32.650;-16.902;2022-08-19T01:05:28;101551.13;;;19.54;65.16
61026;BME280;46911;32.650;-16.902;2022-08-19T01:07:32;101561.06;;;19.53;64.91
61026;BME280;46911;32.650;-16.902;2022-08-19T01:09:35;101555.13;;;19.50;65.13
61026;BME280;46911;32.650;-16.902;2022-08-19T01:11:40;101552.56;;;19.48;65.18
61026;BME280;46911;32.650;-16.902;2022-08-19T01:13:42;101549.97;;;19.47;65.16
61026;BME280;46911;32.650;-16.902;2022-08-19T01:15:46;101550.13;;;19.45;65.07
61026;BME280;46911;32.650;-16.902;2022-08-19T01:17:49;101548.28;;;19.46;64.85
61026;BME280;46911;32.650;-16.902;2022-08-19T01:19:53;101549.97;;;19.47;65.01
61026;BME280;46911;32.650;-16.902;2022-08-19T01:24:01;101550.41;;;19.42;64.80
61026;BME280;46911;32.650;-16.902;2022-08-19T01:26:04;101555.97;;;19.40;64.86
61026;BME280;46911;32.650;-16.902;2022-08-19T01:28:05;101549.13;;;19.36;64.86
61026;BME280;46911;32.650;-16.902;2022-08-19T01:30:09;101552.09;;;19.33;65.07
61026;BME280;46911;32.650;-16.902;2022-08-19T01:32:14;101551.25;;;19.33;65.00
61026;BME280;46911;32.650;-16.902;2022-08-19T01:34:15;101552.09;;;19.33;64.90
61026;BME280;46911;32.650;-16.902;2022-08-19T01:36:24;101556.53;;;19.34;65.28
61026;BME280;46911;32.650;-16.902;2022-08-19T01:38:26;101557.50;;;19.33;65.37
61026;BME280;46911;32.650;-16.902;2022-08-19T01:40:32;101556.53;;;19.34;65.71
61026;BME280;46911;32.650;-16.902;2022-08-19T01:42:33;101553.97;;;19.33;65.68
61026;BME280;46911;32.650;-16.902;2022-08-19T01:44:35;101547.41;;;19.35;65.77
61026;BME280;46911;32.650;-16.902;2022-08-19T01:46:38;101551.13;;;19.34;65.75
61026;BME280;46911;32.650;-16.902;2022-08-19T01:48:40;101548.41;;;19.34;66.30
61026;BME280;46911;32.650;-16.902;2022-08-19T01:50:41;101546.97;;;19.30;66.36
61026;BME280;46911;32.650;-16.902;2022-08-19T01:52:44;101539.84;;;19.29;66.01
61026;BME280;46911;32.650;-16.902;2022-08-19T01:54:47;101539.41;;;19.24;65.82
61026;BME280;46911;32.650;-16.902;2022-08-19T01:56:50;101543.69;;;19.27;65.36
61026;BME280;46911;32.650;-16.902;2022-08-19T01:58:58;101535.03;;;19.23;65.08
61026;BME280;46911;32.650;-16.902;2022-08-19T02:01:00;101539.72;;;19.21;65.18
61026;BME280;46911;32.650;-16.902;2022-08-19T02:03:03;101528.31;;;19.17;65.28
61026;BME280;46911;32.650;-16.902;2022-08-19T02:05:07;101527.63;;;19.15;65.26
61026;BME280;46911;32.650;-16.902;2022-08-19T02:07:10;101528.03;;;19.11;65.50
61026;BME280;46911;32.650;-16.902;2022-08-19T02:09:15;101521.78;;;19.10;65.54
61026;BME280;46911;32.650;-16.902;2022-08-19T02:11:19;101516.66;;;19.07;65.47
61026;BME280;46911;32.650;-16.902;2022-08-19T02:13:21;101523.06;;;19.06;66.02
61026;BME280;46911;32.650;-16.902;2022-08-19T02:15:24;101520.63;;;19.03;66.16
61026;BME280;46911;32.650;-16.902;2022-08-19T02:17:25;101518.06;;;19.01;66.22
61026;BME280;46911;32.650;-16.902;2022-08-19T02:19:26;101514.66;;;18.99;66.25
61026;BME280;46911;32.650;-16.902;2022-08-19T02:21:28;101521.31;;;18.95;66.49
61026;BME280;46911;32.650;-16.902;2022-08-19T02:23:30;101518.78;;;18.94;67.03
61026;BME280;46911;32.650;-16.902;2022-08-19T02:25:31;101519.16;;;18.89;66.96
61026;BME280;46911;32.650;-16.902;2022-08-19T02:27:32;101521.03;;;18.88;67.31
61026;BME280;46911;32.650;-16.902;2022-08-19T02:29:33;101510.34;;;18.87;67.38
61026;BME280;46911;32.650;-16.902;2022-08-19T02:31:34;101514.03;;;18.86;67.57
61026;BME280;46911;32.650;-16.902;2022-08-19T02:33:37;101508.03;;;18.82;67.88
61026;BME280;46911;32.650;-16.902;2022-08-19T02:35:41;101511.72;;;18.81;67.83
61026;BME280;46911;32.650;-16.902;2022-08-19T02:37:43;101508.91;;;18.83;67.94
61026;BME280;46911;32.650;-16.902;2022-08-19T02:40:05;101504.63;;;18.80;68.14
61026;BME280;46911;32.650;-16.902;2022-08-19T02:42:08;101509.31;;;18.78;67.95
61026;BME280;46911;32.650;-16.902;2022-08-19T02:44:11;101509.31;;;18.78;68.32
61026;BME280;46911;32.650;-16.902;2022-08-19T02:46:13;101508.59;;;18.76;68.27
61026;BME280;46911;32.650;-16.902;2022-08-19T02:48:18;101496.38;;;18.82;67.81
61026;BME280;46911;32.650;-16.902;2022-08-19T02:50:19;101503.06;;;18.78;67.51
61026;BME280;46911;32.650;-16.902;2022-08-19T02:52:20;101501.19;;;18.78;67.50
61026;BME280;46911;32.650;-16.902;2022-08-19T02:54:22;101499.63;;;18.76;67.49
61026;BME280;46911;32.650;-16.902;2022-08-19T02:56:26;101503.59;;;18.71;67.28
61026;BME280;46911;32.650;-16.902;2022-08-19T02:58:27;101500.91;;;18.71;67.36
61026;BME280;46911;32.650;-16.902;2022-08-19T03:00:28;101510.13;;;18.69;67.56
61026;BME280;46911;32.650;-16.902;2022-08-19T03:02:29;101512.00;;;18.68;67.43
61026;BME280;46911;32.650;-16.902;2022-08-19T03:04:30;101511.53;;;18.63;67.56
61026;BME280;46911;32.650;-16.902;2022-08-19T03:06:31;101509.13;;;18.60;67.32
61026;BME280;46911;32.650;-16.902;2022-08-19T03:08:34;101502.72;;;18.61;67.27
61026;BME280;46911;32.650;-16.902;2022-08-19T03:10:39;101502.59;;;18.63;66.91
61026;BME280;46911;32.650;-16.902;2022-08-19T03:12:40;101502.59;;;18.63;66.97
61026;BME280;46911;32.650;-16.902;2022-08-19T03:14:45;101505.16;;;18.64;66.44
61026;BME280;46911;32.650;-16.902;2022-08-19T03:16:47;101497.31;;;18.61;66.48
61026;BME280;46911;32.650;-16.902;2022-08-19T03:18:49;101497.44;;;18.60;66.48
61026;BME280;46911;32.650;-16.902;2022-08-19T03:20:51;101490.47;;;18.57;66.42
61026;BME280;46911;32.650;-16.902;2022-08-19T03:22:54;101495.03;;;18.56;66.61
61026;BME280;46911;32.650;-16.902;2022-08-19T03:24:55;101485.22;;;18.55;66.43
61026;BME280;46911;32.650;-16.902;2022-08-19T03:27:01;101486.19;;;18.54;66.49
61026;BME280;46911;32.650;-16.902;2022-08-19T03:29:05;101490.03;;;18.52;66.43
61026;BME280;46911;32.650;-16.902;2022-08-19T03:31:10;101493.75;;;18.51;66.41
61026;BME280;46911;32.650;-16.902;2022-08-19T03:33:13;101484.63;;;18.52;66.54
61026;BME280;46911;32.650;-16.902;2022-08-19T03:35:16;101487.47;;;18.50;66.64
61026;BME280;46911;32.650;-16.902;2022-08-19T03:37:17;101485.63;;;18.51;66.71
61026;BME280;46911;32.650;-16.902;2022-08-19T03:39:18;101481.34;;;18.48;66.73
61026;BME280;46911;32.650;-16.902;2022-08-19T03:41:22;101485.63;;;18.51;66.96
61026;BME280;46911;32.650;-16.902;2022-08-19T03:43:23;101477.53;;;18.51;66.73
61026;BME280;46911;32.650;-16.902;2022-08-19T03:45:23;101471.25;;;18.50;66.82
61026;BME280;46911;32.650;-16.902;2022-08-19T03:47:27;101481.22;;;18.50;66.83
61026;BME280;46911;32.650;-16.902;2022-08-19T03:49:29;101477.25;;;18.54;66.68
61026;BME280;46911;32.650;-16.902;2022-08-19T03:51:36;101482.66;;;18.54;66.40
61026;BME280;46911;32.650;-16.902;2022-08-19T03:53:37;101473.69;;;18.53;66.68
61026;BME280;46911;32.650;-16.902;2022-08-19T03:55:41;101465.72;;;18.52;66.55
61026;BME280;46911;32.650;-16.902;2022-08-19T03:57:44;101457.88;;;18.49;66.75
61026;BME280;46911;32.650;-16.902;2022-08-19T03:59:45;101462.59;;;18.47;66.69
61026;BME280;46911;32.650;-16.902;2022-08-19T04:01:46;101458.47;;;18.43;67.03
61026;BME280;46911;32.650;-16.902;2022-08-19T04:03:49;101467.56;;;18.42;66.93
61026;BME280;46911;32.650;-16.902;2022-08-19T04:05:53;101462.28;;;18.40;67.19
61026;BME280;46911;32.650;-16.902;2022-08-19T04:07:56;101453.44;;;18.38;67.13
61026;BME280;46911;32.650;-16.902;2022-08-19T04:09:59;101457.28;;;18.35;67.41
61026;BME280;46911;32.650;-16.902;2022-08-19T04:12:00;101457.56;;;18.32;67.48
61026;BME280;46911;32.650;-16.902;2022-08-19T04:14:05;101458.41;;;18.33;67.58
61026;BME280;46911;32.650;-16.902;2022-08-19T04:16:07;101460.53;;;18.29;67.74
61026;BME280;46911;32.650;-16.902;2022-08-19T04:18:10;101465.81;;;18.31;67.74
61026;BME280;46911;32.650;-16.902;2022-08-19T04:20:10;101462.38;;;18.29;68.06
61026;BME280;46911;32.650;-16.902;2022-08-19T04:22:11;101469.34;;;18.31;68.06
61026;BME280;46911;32.650;-16.902;2022-08-19T04:24:15;101472.06;;;18.31;67.94
61026;BME280;46911;32.650;-16.902;2022-08-19T04:26:17;101473.31;;;18.27;68.16
61026;BME280;46911;32.650;-16.902;2022-08-19T04:28:21;101478.72;;;18.27;68.36
61026;BME280;46911;32.650;-16.902;2022-08-19T04:30:24;101479.16;;;18.32;68.37
61026;BME280;46911;32.650;-16.902;2022-08-19T04:32:25;101480.44;;;18.28;68.36
61026;BME280;46911;32.650;-16.902;2022-08-19T04:34:27;101479.72;;;18.26;68.39
61026;BME280;46911;32.650;-16.902;2022-08-19T04:36:29;101479.72;;;18.26;68.57
61026;BME280;46911;32.650;-16.902;2022-08-19T04:38:30;101481.72;;;18.24;68.75
61026;BME280;46911;32.650;-16.902;2022-08-19T04:40:31;101481.81;;;18.22;68.74
61026;BME280;46911;32.650;-16.902;2022-08-19T04:42:50;101488.09;;;18.23;68.62
61026;BME280;46911;32.650;-16.902;2022-08-19T04:44:50;101489.81;;;18.24;68.62
61026;BME280;46911;32.650;-16.902;2022-08-19T04:46:51;101486.09;;;18.25;68.52
61026;BME280;46911;32.650;-16.902;2022-08-19T04:48:52;101482.56;;;18.34;68.39
61026;BME280;46911;32.650;-16.902;2022-08-19T04:50:54;101483.84;;;18.30;68.50
61026;BME280;46911;32.650;-16.902;2022-08-19T04:53:02;101484.25;;;18.26;68.76
61026;BME280;46911;32.650;-16.902;2022-08-19T04:55:03;101484.81;;;18.29;68.70
61026;BME280;46911;32.650;-16.902;2022-08-19T04:57:06;101488.78;;;18.25;68.63
61026;BME280;46911;32.650;-16.902;2022-08-19T04:59:09;101489.81;;;18.24;68.73
61026;BME280;46911;32.650;-16.902;2022-08-19T05:01:11;101486.09;;;18.25;68.70
61026;BME280;46911;32.650;-16.902;2022-08-19T05:03:12;101488.22;;;18.21;68.87
61026;BME280;46911;32.650;-16.902;2022-08-19T05:05:17;101484.94;;;18.18;68.86
61026;BME280;46911;32.650;-16.902;2022-08-19T05:07:20;101481.09;;;18.20;68.71
61026;BME280;46911;32.650;-16.902;2022-08-19T05:09:25;101483.81;;;18.20;68.66
61026;BME280;46911;32.650;-16.902;2022-08-19T05:11:30;101488.63;;;18.17;68.80
61026;BME280;46911;32.650;-16.902;2022-08-19T05:13:31;101496.72;;;18.17;68.71
61026;BME280;46911;32.650;-16.902;2022-08-19T05:15:32;101500.28;;;18.17;69.08
61026;BME280;46911;32.650;-16.902;2022-08-19T05:17:33;101495.13;;;18.14;69.15
61026;BME280;46911;32.650;-16.902;2022-08-19T05:19:37;101494.56;;;18.11;68.96
61026;BME280;46911;32.650;-16.902;2022-08-19T05:21:56;101498.84;;;18.13;69.06
61026;BME280;46911;32.650;-16.902;2022-08-19T05:24:14;101497.97;;;18.13;69.04
61026;BME280;46911;32.650;-16.902;2022-08-19T05:26:17;101502.53;;;18.12;69.19
61026;BME280;46911;32.650;-16.902;2022-08-19T05:28:19;101500.09;;;18.09;69.11
61026;BME280;46911;32.650;-16.902;2022-08-19T05:30:20;101506.50;;;18.08;69.01
61026;BME280;46911;32.650;-16.902;2022-08-19T05:32:20;101500.81;;;18.11;69.25
61026;BME280;46911;32.650;-16.902;2022-08-19T05:34:23;101515.06;;;18.13;69.16
61026;BME280;46911;32.650;-16.902;2022-08-19T05:36:27;101511.47;;;18.13;68.98
61026;BME280;46911;32.650;-16.902;2022-08-19T05:38:32;101507.81;;;18.14;69.02
61026;BME280;46911;32.650;-16.902;2022-08-19T05:40:37;101515.16;;;18.12;69.19
61026;BME280;46911;32.650;-16.902;2022-08-19T05:42:38;101524.97;;;18.13;68.89
61026;BME280;46911;32.650;-16.902;2022-08-19T05:44:41;101522.28;;;18.13;69.02
61026;BME280;46911;32.650;-16.902;2022-08-19T05:46:45;101524.97;;;18.13;69.14
61026;BME280;46911;32.650;-16.902;2022-08-19T05:48:49;101524.28;;;18.11;69.11
61026;BME280;46911;32.650;-16.902;2022-08-19T05:50:49;101528.09;;;18.08;69.14
61026;BME280;46911;32.650;-16.902;2022-08-19T05:52:52;101522.56;;;18.10;69.20
61026;BME280;46911;32.650;-16.902;2022-08-19T05:54:55;101527.34;;;18.06;69.16
61026;BME280;46911;32.650;-16.902;2022-08-19T05:57:00;101531.03;;;18.05;69.30
61026;BME280;46911;32.650;-16.902;2022-08-19T05:59:01;101532.91;;;18.04;69.36
61026;BME280;46911;32.650;-16.902;2022-08-19T06:01:17;101531.19;;;18.03;69.20
61026;BME280;46911;32.650;-16.902;2022-08-19T06:03:18;101532.44;;;17.99;69.39
61026;BME280;46911;32.650;-16.902;2022-08-19T06:05:19;101533.41;;;17.98;69.32
61026;BME280;46911;32.650;-16.902;2022-08-19T06:07:20;101535.28;;;17.98;69.57
61026;BME280;46911;32.650;-16.902;2022-08-19T06:09:25;101541.78;;;17.95;69.42
61026;BME280;46911;32.650;-16.902;2022-08-19T06:11:34;101537.13;;;17.97;69.67
61026;BME280;46911;32.650;-16.902;2022-08-19T06:13:37;101540.94;;;17.95;69.69
61026;BME280;46911;32.650;-16.902;2022-08-19T06:15:41;101534.16;;;18.00;69.54
61026;BME280;46911;32.650;-16.902;2022-08-19T06:17:47;101539.56;;;18.00;69.19
61026;BME280;46911;32.650;-16.902;2022-08-19T06:19:48;101537.84;;;17.99;69.27
61026;BME280;46911;32.650;-16.902;2022-08-19T06:21:50;101540.53;;;17.99;69.13
61026;BME280;46911;32.650;-16.902;2022-08-19T06:23:51;101537.00;;;17.99;69.00
61026;BME280;46911;32.650;-16.902;2022-08-19T06:25:52;101552.31;;;17.98;68.80
61026;BME280;46911;32.650;-16.902;2022-08-19T06:27:55;101548.13;;;18.05;68.73
61026;BME280;46911;32.650;-16.902;2022-08-19T06:29:56;101548.81;;;18.07;68.38
61026;BME280;46911;32.650;-16.902;2022-08-19T06:31:57;101551.53;;;18.07;68.38
61026;BME280;46911;32.650;-16.902;2022-08-19T06:34:03;101566.28;;;18.03;68.15
61026;BME280;46911;32.650;-16.902;2022-08-19T06:36:04;101561.16;;;18.00;68.35
61026;BME280;46911;32.650;-16.902;2022-08-19T06:38:05;101557.72;;;17.98;68.27
61026;BME280;46911;32.650;-16.902;2022-08-19T06:40:06;101558.84;;;17.96;68.47
61026;BME280;46911;32.650;-16.902;2022-08-19T06:42:11;101556.28;;;17.94;68.34
61026;BME280;46911;32.650;-16.902;2022-08-19T06:44:16;101556.13;;;17.96;68.18
61026;BME280;46911;32.650;-16.902;2022-08-19T06:46:17;101554.03;;;17.99;68.07
61026;BME280;46911;32.650;-16.902;2022-08-19T06:48:21;101549.84;;;18.06;67.69
61026;BME280;46911;32.650;-16.902;2022-08-19T06:50:22;101549.28;;;18.13;67.37
61026;BME280;46911;32.650;-16.902;2022-08-19T06:52:23;101552.72;;;18.15;67.22
61026;BME280;46911;32.650;-16.902;2022-08-19T06:54:24;101549.59;;;18.19;66.98
61026;BME280;46911;32.650;-16.902;2022-08-19T06:56:27;101549.47;;;18.21;66.94
61026;BME280;46911;32.650;-16.902;2022-08-19T06:58:36;101550.34;;;18.21;66.82
61026;BME280;46911;32.650;-16.902;2022-08-19T07:00:38;101547.34;;;18.24;66.44
61026;BME280;46911;32.650;-16.902;2022-08-19T07:02:42;101557.88;;;18.28;66.20
61026;BME280;46911;32.650;-16.902;2022-08-19T07:04:43;101564.63;;;18.33;65.99
61026;BME280;46911;32.650;-16.902;2022-08-19T07:06:46;101559.91;;;18.35;65.95
61026;BME280;46911;32.650;-16.902;2022-08-19T07:08:52;101560.66;;;18.37;65.93
61026;BME280;46911;32.650;-16.902;2022-08-19T07:10:55;101559.25;;;18.43;65.75
61026;BME280;46911;32.650;-16.902;2022-08-19T07:12:58;101569.63;;;18.48;65.20
61026;BME280;46911;32.650;-16.902;2022-08-19T07:15:03;101570.09;;;18.53;65.20
61026;BME280;46911;32.650;-16.902;2022-08-19T07:17:08;101572.94;;;18.51;65.07
61026;BME280;46911;32.650;-16.902;2022-08-19T07:19:09;101571.66;;;18.55;64.84
61026;BME280;46911;32.650;-16.902;2022-08-19T07:21:11;101571.53;;;18.57;64.49
61026;BME280;46911;32.650;-16.902;2022-08-19T07:23:11;101582.19;;;18.58;64.49
61026;BME280;46911;32.650;-16.902;2022-08-19T07:25:12;101580.22;;;18.61;64.36
61026;BME280;46911;32.650;-16.902;2022-08-19T07:27:15;101587.22;;;18.63;64.24
61026;BME280;46911;32.650;-16.902;2022-08-19T07:29:20;101586.78;;;18.68;64.36
61026;BME280;46911;32.650;-16.902;2022-08-19T07:31:26;101591.06;;;18.70;64.09
61026;BME280;46911;32.650;-16.902;2022-08-19T07:33:27;101586.09;;;18.76;64.00
61026;BME280;46911;32.650;-16.902;2022-08-19T07:35:30;101591.38;;;18.77;64.05
61026;BME280;46911;32.650;-16.902;2022-08-19T07:37:32;101592.09;;;18.79;64.08
61026;BME280;46911;32.650;-16.902;2022-08-19T07:39:39;101589.13;;;18.82;63.96
61026;BME280;46911;32.650;-16.902;2022-08-19T07:41:42;101585.16;;;18.86;64.16
61026;BME280;46911;32.650;-16.902;2022-08-19T07:43:46;101596.59;;;18.90;63.62
61026;BME280;46911;32.650;-16.902;2022-08-19T07:45:47;101590.88;;;18.93;63.82
61026;BME280;46911;32.650;-16.902;2022-08-19T07:47:48;101590.63;;;18.96;63.73
61026;BME280;46911;32.650;-16.902;2022-08-19T07:49:49;101592.22;;;18.99;63.71
61026;BME280;46911;32.650;-16.902;2022-08-19T07:51:54;101593.78;;;19.01;63.37
61026;BME280;46911;32.650;-16.902;2022-08-19T07:53:56;101592.75;;;19.02;63.49
61026;BME280;46911;32.650;-16.902;2022-08-19T07:56:00;101591.09;;;19.11;63.25
61026;BME280;46911;32.650;-16.902;2022-08-19T07:58:06;101603.63;;;19.22;63.05
61026;BME280;46911;32.650;-16.902;2022-08-19T08:00:07;101597.09;;;19.34;62.88
61026;BME280;46911;32.650;-16.902;2022-08-19T08:02:12;101593.41;;;19.45;62.35
61026;BME280;46911;32.650;-16.902;2022-08-19T08:04:15;101595.13;;;19.56;62.15
61026;BME280;46911;32.650;-16.902;2022-08-19T08:06:34;101590.28;;;19.69;61.81
61026;BME280;46911;32.650;-16.902;2022-08-19T08:08:56;101603.72;;;19.81;61.81
61026;BME280;46911;32.650;-16.902;2022-08-19T08:11:12;101602.69;;;19.92;61.71
61026;BME280;46911;32.650;-16.902;2022-08-19T08:13:13;101596.44;;;20.01;61.24
61026;BME280;46911;32.650;-16.902;2022-08-19T08:15:16;101602.84;;;20.10;61.29
61026;BME280;46911;32.650;-16.902;2022-08-19T08:17:21;101595.53;;;20.20;60.89
61026;BME280;46911;32.650;-16.902;2022-08-19T08:19:25;101591.38;;;20.26;60.72
61026;BME280;46911;32.650;-16.902;2022-08-19T08:21:29;101595.78;;;20.36;60.47
61026;BME280;46911;32.650;-16.902;2022-08-19T08:23:29;101594.91;;;20.46;60.54
61026;BME280;46911;32.650;-16.902;2022-08-19T08:25:31;101601.28;;;20.54;60.45
61026;BME280;46911;32.650;-16.902;2022-08-19T08:27:35;101608.34;;;20.65;60.28
61026;BME280;46911;32.650;-16.902;2022-08-19T08:29:37;101598.38;;;20.76;60.20
61026;BME280;46911;32.650;-16.902;2022-08-19T08:31:40;101607.31;;;20.86;59.70
61026;BME280;46911;32.650;-16.902;2022-08-19T08:33:42;101600.69;;;20.98;59.59
61026;BME280;46911;32.650;-16.902;2022-08-19T08:35:42;101600.63;;;21.08;59.16
61026;BME280;46911;32.650;-16.902;2022-08-19T08:37:44;101606.84;;;21.18;59.03
61026;BME280;46911;32.650;-16.902;2022-08-19T08:39:44;101611.19;;;21.29;58.77
61026;BME280;46911;32.650;-16.902;2022-08-19T08:43:53;101611.34;;;21.55;58.28
61026;BME280;46911;32.650;-16.902;2022-08-19T08:46:03;101613.81;;;21.67;57.63
61026;BME280;46911;32.650;-16.902;2022-08-19T08:48:15;101613.25;;;21.81;57.35
61026;BME280;46911;32.650;-16.902;2022-08-19T08:50:23;101609.44;;;21.92;56.91
61026;BME280;46911;32.650;-16.902;2022-08-19T08:52:31;101599.34;;;22.02;57.16
61026;BME280;46911;32.650;-16.902;2022-08-19T08:54:41;101606.94;;;21.99;57.40
61026;BME280;46911;32.650;-16.902;2022-08-19T08:56:43;101606.16;;;22.06;56.96
61026;BME280;46911;32.650;-16.902;2022-08-19T09:00:48;101599.63;;;22.78;54.65
61026;BME280;46911;32.650;-16.902;2022-08-19T09:02:53;101604.19;;;23.12;54.20
61026;BME280;46911;32.650;-16.902;2022-08-19T09:04:54;101603.63;;;23.60;52.02
61026;BME280;46911;32.650;-16.902;2022-08-19T09:07:09;101594.28;;;23.79;51.49
61026;BME280;46911;32.650;-16.902;2022-08-19T09:09:14;101600.44;;;24.05;50.97
61026;BME280;46911;32.650;-16.902;2022-08-19T09:15:40;101615.72;;;24.96;48.52
61026;BME280;46911;32.650;-16.902;2022-08-19T09:17:49;101604.84;;;25.50;47.37
61026;BME280;46911;32.650;-16.902;2022-08-19T09:19:54;101605.09;;;25.87;46.03
61026;BME280;46911;32.650;-16.902;2022-08-19T09:21:55;101609.03;;;26.08;45.59
61026;BME280;46911;32.650;-16.902;2022-08-19T09:23:58;101618.63;;;26.71;43.29
61026;BME280;46911;32.650;-16.902;2022-08-19T09:26:01;101623.31;;;26.63;43.94
61026;BME280;46911;32.650;-16.902;2022-08-19T09:28:06;101614.44;;;26.31;44.27
61026;BME280;46911;32.650;-16.902;2022-08-19T09:30:14;101615.69;;;26.43;44.44
61026;BME280;46911;32.650;-16.902;2022-08-19T09:32:18;101619.34;;;25.97;44.88
61026;BME280;46911;32.650;-16.902;2022-08-19T09:34:19;101625.19;;;26.32;44.95
61026;BME280;46911;32.650;-16.902;2022-08-19T09:36:20;101623.22;;;26.26;44.82
61026;BME280;46911;32.650;-16.902;2022-08-19T09:38:22;101623.31;;;26.33;45.13
61026;BME280;46911;32.650;-16.902;2022-08-19T09:40:27;101621.50;;;26.55;44.64
61026;BME280;46911;32.650;-16.902;2022-08-19T09:42:28;101618.97;;;26.98;43.57
61026;BME280;46911;32.650;-16.902;2022-08-19T09:44:31;101623.25;;;27.59;42.42
61026;BME280;46911;32.650;-16.902;2022-08-19T09:46:33;101618.69;;;27.88;41.87
61026;BME280;46911;32.650;-16.902;2022-08-19T09:48:36;101622.94;;;26.96;43.30
61026;BME280;46911;32.650;-16.902;2022-08-19T09:50:37;101631.72;;;26.61;44.89
61026;BME280;46911;32.650;-16.902;2022-08-19T09:52:38;101625.94;;;27.16;43.28
61026;BME280;46911;32.650;-16.902;2022-08-19T09:54:39;101628.69;;;26.26;44.52
61026;BME280;46911;32.650;-16.902;2022-08-19T09:56:40;101627.75;;;26.34;44.65
61026;BME280;46911;32.650;-16.902;2022-08-19T09:58:41;101621.81;;;27.05;43.67
61026;BME280;46911;32.650;-16.902;2022-08-19T10:00:41;101621.53;;;27.00;43.38
61026;BME280;46911;32.650;-16.902;2022-08-19T10:02:44;101625.69;;;27.32;43.28
61026;BME280;46911;32.650;-16.902;2022-08-19T10:04:48;101625.88;;;27.31;42.13
61026;BME280;46911;32.650;-16.902;2022-08-19T10:07:07;101619.75;;;27.65;41.79
61026;BME280;46911;32.650;-16.902;2022-08-19T10:09:10;101621.91;;;27.92;41.70
61026;BME280;46911;32.650;-16.902;2022-08-19T10:11:13;101621.47;;;27.66;41.75
61026;BME280;46911;32.650;-16.902;2022-08-19T10:13:17;101608.88;;;28.00;41.22
61026;BME280;46911;32.650;-16.902;2022-08-19T10:15:18;101621.84;;;27.85;42.25
61026;BME280;46911;32.650;-16.902;2022-08-19T10:17:21;101629.53;;;27.53;42.28
61026;BME280;46911;32.650;-16.902;2022-08-19T10:19:28;101632.84;;;28.13;41.55
61026;BME280;46911;32.650;-16.902;2022-08-19T10:21:36;101643.50;;;27.80;41.16
61026;BME280;46911;32.650;-16.902;2022-08-19T10:23:37;101638.34;;;27.70;41.72
61026;BME280;46911;32.650;-16.902;2022-08-19T10:25:40;101641.78;;;28.50;40.81
61026;BME280;46911;32.650;-16.902;2022-08-19T10:27:43;101634.50;;;28.08;41.20
61026;BME280;46911;32.650;-16.902;2022-08-19T10:29:44;101641.69;;;27.29;43.44
61026;BME280;46911;32.650;-16.902;2022-08-19T10:31:44;101639.19;;;27.70;42.59
61026;BME280;46911;32.650;-16.902;2022-08-19T10:33:52;101640.16;;;28.06;42.28
61026;BME280;46911;32.650;-16.902;2022-08-19T10:36:04;101635.91;;;27.82;42.21
61026;BME280;46911;32.650;-16.902;2022-08-19T10:38:06;101630.28;;;29.17;40.41